Crewe, Virginia
Current Conditions -  °F | °C
As of 1:35 AM on Tuesday 21 Oct 2014 (Local Time) from KW81 Reporting Station
Overcast Overcast  
Wind Chill: 54°   Ceiling: 12000
Heat Index: 54°   Visibility: 10mi
Dew Point: 48°   Wind: 0mph
Humidity: 81%   Direction: NA
Pressure: 29.93"   Gusts: NA
Location:  37.17°N, 78.12°W
Report Text: KW81 210535Z AUTO 00000KT 10SM SCT085 OVC120 12/09 A2993 RMK AO1 T01210089
Loading
Personal Weather Stations






























Interactive Weather Map
Tropical Storm Tracking
New forecast layout! Learn more

10-Day Weather Forecast

Advertisements
Track Severe Weather on mobile